Terminal Aerodrome Forecast
Issued by NWS

Home | Current Version | Previous Version | Text Only | Print | Product List | Glossary On
Versions: 1 2 3 4 5 6 7 8 9 10 11 12 13 14
000
FTUS41 KBOX 140535
TAFFMH
TAF
KFMH 140535Z 1406/1506 26013G22KT P6SM BKN100
     FM141100 30006KT P6SM -SN OVC030
     FM141200 30004KT 1SM -SN OVC020
     FM141400 35010KT 1SM -SN OVC015
     FM141600 35010KT P6SM OVC040
     FM142000 31010G19KT P6SM SCT250=

USA.gov is the U.S. government's official web portal to all federal, state and local government web resources and services.